Time;durP1;ratioP1;P1;durP2;ratioP2;P2;SDS_P1;SDS_P2;PMS_P1;PMS_P2;Temp;Humidity;BMP_temperature;BMP_pressure;BME280_temperature;BME280_humidity;BME280_pressure;Samples;Min_cycle;Max_cycle;Signal;HPM_P1;HPM_P2
2022/10/08 00:02:03;;;;;;;2.83;2.30;;;;;;;18.34;65.77;96976.56;10566839;28;20039;-30
2022/10/08 00:07:04;;;;;;;4.33;1.93;;;;;;;18.31;63.02;96971.47;10563100;28;20039;-29
2022/10/08 00:12:04;;;;;;;3.30;1.80;;;;;;;18.27;62.31;96974.81;10562507;28;20043;-30
2022/10/08 00:17:05;;;;;;;2.03;1.70;;;;;;;18.25;61.92;96975.66;10564049;28;20035;-31
2022/10/08 00:22:05;;;;;;;3.95;2.30;;;;;;;18.18;61.96;96968.84;10560728;28;20290;-30
2022/10/08 00:27:05;;;;;;;2.17;2.00;;;;;;;18.23;62.08;96970.56;10564666;28;20043;-30
2022/10/08 00:32:06;;;;;;;2.80;1.97;;;;;;;18.21;62.17;96968.84;10569096;28;20100;-29
2022/10/08 00:37:06;;;;;;;2.70;1.90;;;;;;;18.22;62.02;96970.53;10561019;28;20082;-29
2022/10/08 00:42:09;;;;;;;2.13;1.77;;;;;;;18.21;61.94;96973.91;10566080;28;20076;-30
2022/10/08 00:47:21;;;;;;;2.33;1.88;;;;;;;18.18;62.19;96968.84;10564290;28;20043;-30
2022/10/08 00:52:25;;;;;;;2.58;2.22;;;;;;;18.29;65.61;96972.28;10561389;28;20081;-31
2022/10/08 00:57:27;;;;;;;6.45;2.40;;;;;;;18.34;65.65;96975.72;10564055;28;20111;-30
2022/10/08 01:02:27;;;;;;;2.22;2.00;;;;;;;18.33;63.32;96976.56;10567740;28;20400;-30
2022/10/08 01:07:43;;;;;;;2.30;1.77;;;;;;;18.24;61.99;96958.75;10556910;28;20032;-30
2022/10/08 01:13:04;;;;;;;2.75;1.83;;;;;;;18.24;61.82;96956.22;10561320;28;20034;-30
2022/10/08 01:18:10;;;;;;;2.47;1.92;;;;;;;18.23;61.96;96957.88;10562413;28;20027;-30
2022/10/08 01:23:35;;;;;;;2.22;1.67;;;;;;;18.23;61.98;96957.03;10560693;28;20036;-28
2022/10/08 01:28:55;;;;;;;3.88;1.58;;;;;;;18.22;62.02;96947.72;10566332;28;20056;-30
2022/10/08 01:34:02;;;;;;;2.40;1.67;;;;;;;18.20;61.79;96951.97;10561647;28;20085;-29
2022/10/08 01:39:08;;;;;;;3.97;2.38;;;;;;;18.19;62.04;96947.72;10566941;28;20043;-29
2022/10/08 01:44:22;;;;;;;1.67;1.13;;;;;;;18.20;62.04;96937.63;10562203;28;20042;-30
2022/10/08 01:49:28;;;;;;;3.00;2.08;;;;;;;18.26;65.03;96937.63;10559916;28;20039;-30
2022/10/08 01:54:30;;;;;;;4.23;2.10;;;;;;;18.32;65.50;96942.75;10563560;28;20032;-30
2022/10/08 01:59:36;;;;;;;2.58;2.10;;;;;;;18.26;63.46;96916.50;10551741;28;20098;-30
2022/10/08 02:04:36;;;;;;;2.33;1.65;;;;;;;18.24;62.11;96928.34;10556544;28;20205;-30
2022/10/08 02:09:39;;;;;;;2.53;1.50;;;;;;;18.25;61.95;96919.88;10567915;28;20110;-29
2022/10/08 02:14:46;;;;;;;3.10;2.08;;;;;;;18.23;61.89;96924.09;10559734;28;20040;-29
2022/10/08 02:19:59;;;;;;;;;;;;;;;18.24;61.92;96928.34;10553996;28;20405;-30
2022/10/08 02:25:25;;;;;;;1.90;1.60;;;;;;;18.22;62.09;96924.94;10559215;28;19959;-30
2022/10/08 02:30:32;;;;;;;2.05;1.85;;;;;;;18.19;62.05;96920.72;10560109;28;20123;-29
2022/10/08 02:35:43;;;;;;;3.42;1.63;;;;;;;18.20;61.89;96921.53;10558430;28;20027;-30
2022/10/08 02:40:48;;;;;;;2.42;1.77;;;;;;;18.20;62.15;96917.34;10563207;28;20059;-29
2022/10/08 02:45:55;;;;;;;1.92;1.45;;;;;;;18.24;62.91;96929.16;10559387;28;20122;-30
2022/10/08 02:51:00;;;;;;;3.92;1.98;;;;;;;18.30;65.00;96919.09;10558337;28;20416;-30
2022/10/08 02:56:19;;;;;;;3.25;2.13;;;;;;;18.31;64.16;96925.00;10561714;28;20035;-30
2022/10/08 03:01:33;;;;;;;2.10;1.85;;;;;;;18.25;62.12;96928.31;10556254;28;20446;-29
2022/10/08 03:06:35;;;;;;;1.58;1.30;;;;;;;18.19;62.05;96919.84;10554206;28;20457;-30
2022/10/08 03:11:36;;;;;;;2.70;1.92;;;;;;;18.18;61.98;96919.00;10557834;28;20023;-29
2022/10/08 03:16:42;;;;;;;2.17;1.88;;;;;;;18.21;61.93;96923.25;10564577;28;20028;-30
2022/10/08 03:21:44;;;;;;;1.70;1.27;;;;;;;18.20;62.33;96929.16;10553073;28;20035;-30
2022/10/08 03:26:45;;;;;;;2.55;1.70;;;;;;;18.13;62.08;96914.75;10557530;28;20035;-30
2022/10/08 03:31:49;;;;;;;2.07;1.20;;;;;;;18.15;62.13;96923.22;10562256;28;20036;-30
2022/10/08 03:36:49;;;;;;;1.80;1.38;;;;;;;18.20;62.12;96931.69;10556370;28;20667;-30
2022/10/08 03:41:50;;;;;;;2.37;1.30;;;;;;;18.21;61.88;96928.31;10565517;28;20034;-29
2022/10/08 03:46:50;;;;;;;1.90;1.60;;;;;;;18.28;65.04;96935.09;10570728;28;20069;-30
2022/10/08 03:51:51;;;;;;;2.03;1.80;;;;;;;18.29;65.35;96935.16;10567759;28;20289;-31
2022/10/08 03:56:51;;;;;;;1.50;1.40;;;;;;;18.21;62.34;96928.31;10572114;28;20285;-29
2022/10/08 04:01:51;;;;;;;2.30;1.83;;;;;;;18.22;62.29;96933.38;10566625;28;20028;-29
2022/10/08 04:06:52;;;;;;;1.70;1.60;;;;;;;18.23;61.87;96936.75;10564100;28;20042;-30
2022/10/08 04:11:52;;;;;;;3.17;1.77;;;;;;;18.22;61.83;96940.13;10565236;28;20024;-30
2022/10/08 04:16:54;;;;;;;2.10;1.50;;;;;;;18.20;61.68;96935.06;10572093;28;20609;-30
2022/10/08 04:21:54;;;;;;;1.67;1.33;;;;;;;18.20;61.90;96937.63;10567263;28;20401;-30
2022/10/08 04:26:54;;;;;;;1.63;1.30;;;;;;;18.19;61.89;96935.91;10564474;28;20031;-29
2022/10/08 04:31:55;;;;;;;2.00;1.10;;;;;;;18.18;62.01;96939.28;10569836;28;20039;-30
2022/10/08 04:36:55;;;;;;;1.53;1.33;;;;;;;18.16;62.14;96937.59;10562592;28;20313;-30
2022/10/08 04:41:55;;;;;;;1.57;1.40;;;;;;;18.24;64.42;96944.38;10571733;28;20040;-29
2022/10/08 04:46:56;;;;;;;2.75;1.95;;;;;;;18.29;65.07;96940.22;10565988;28;20700;-30
2022/10/08 04:51:56;;;;;;;1.40;1.30;;;;;;;18.32;63.70;96947.81;10563548;28;20078;-29
2022/10/08 04:56:57;;;;;;;1.37;1.27;;;;;;;18.25;62.11;96950.31;10563904;28;20031;-29
2022/10/08 05:01:57;;;;;;;1.60;1.23;;;;;;;18.20;61.85;96952.81;10571514;28;20408;-29
2022/10/08 05:06:57;;;;;;;1.27;1.17;;;;;;;18.20;61.81;96962.09;10560006;28;20058;-29
2022/10/08 05:11:58;;;;;;;1.73;1.40;;;;;;;18.22;61.96;96961.28;10563330;28;20304;-29
2022/10/08 05:16:58;;;;;;;1.80;1.42;;;;;;;18.20;61.96;96959.56;10566772;28;20059;-30
2022/10/08 05:21:58;;;;;;;1.27;1.17;;;;;;;18.14;62.01;96942.63;10550456;28;20032;-29
2022/10/08 05:26:59;;;;;;;1.30;1.20;;;;;;;18.21;61.83;96963.78;10561263;28;20382;-30
2022/10/08 05:31:59;;;;;;;1.90;1.60;;;;;;;18.21;61.94;96954.50;10565656;28;20397;-30
2022/10/08 05:36:59;;;;;;;1.47;1.20;;;;;;;18.21;61.91;96966.31;10559426;28;20502;-30
2022/10/08 05:42:00;;;;;;;1.80;1.40;;;;;;;18.27;64.45;96963.81;10567889;28;20371;-31
2022/10/08 05:47:00;;;;;;;1.40;1.30;;;;;;;18.33;64.77;96974.03;10562158;28;20028;-31
2022/10/08 05:52:01;;;;;;;2.03;1.60;;;;;;;18.34;63.57;96970.66;10555413;28;20032;-32
2022/10/08 05:57:01;;;;;;;1.95;1.50;;;;;;;18.28;62.10;96983.25;10560676;28;20297;-31
2022/10/08 06:02:01;;;;;;;1.40;1.30;;;;;;;18.24;61.73;96981.56;10565636;28;20076;-30
2022/10/08 06:07:02;;;;;;;1.40;1.00;;;;;;;18.24;62.29;96989.16;10552133;28;20398;-32
2022/10/08 06:12:02;;;;;;;2.03;1.40;;;;;;;18.22;61.76;96998.41;10554857;28;20341;-31
2022/10/08 06:17:03;;;;;;;2.35;0.82;;;;;;;18.17;61.86;97002.63;10566419;28;20046;-29
2022/10/08 06:22:03;;;;;;;1.13;1.03;;;;;;;18.22;61.68;97006.03;10555289;28;20036;-30
2022/10/08 06:27:04;;;;;;;1.80;1.60;;;;;;;18.21;62.14;97019.53;10557849;28;20320;-31
2022/10/08 06:32:04;;;;;;;1.50;1.40;;;;;;;18.20;61.91;97023.78;10563241;28;20051;-29
2022/10/08 06:37:05;;;;;;;1.67;1.57;;;;;;;18.21;61.78;97025.47;10557013;28;20039;-30
2022/10/08 06:42:05;;;;;;;3.08;2.20;;;;;;;18.26;65.13;97020.41;10562830;28;20416;-29
2022/10/08 06:47:10;;;;;;;3.50;2.20;;;;;;;18.33;65.17;97033.16;10541434;28;20111;-32
2022/10/08 06:52:11;;;;;;;3.40;1.60;;;;;;;18.36;64.43;97050.06;10554873;28;20031;-30
2022/10/08 06:57:11;;;;;;;4.25;2.03;;;;;;;18.27;64.43;97050.00;10562869;28;20061;-30
2022/10/08 07:02:12;;;;;;;7.80;4.13;;;;;;;18.20;64.36;97053.31;10565856;28;20028;-30
2022/10/08 07:07:12;;;;;;;1.50;1.40;;;;;;;18.21;62.13;97058.41;10553620;28;20289;-29
2022/10/08 07:12:12;;;;;;;3.07;2.00;;;;;;;18.18;62.36;97052.47;10551178;28;20289;-31
2022/10/08 07:17:13;;;;;;;3.63;1.80;;;;;;;18.20;62.56;97066.00;10555993;28;20043;-30
2022/10/08 07:22:13;;;;;;;2.53;1.80;;;;;;;18.20;62.87;97068.53;10553670;28;20290;-29
2022/10/08 07:27:14;;;;;;;2.93;1.30;;;;;;;18.20;61.89;97068.53;10559572;28;20035;-30
2022/10/08 07:32:14;;;;;;;1.73;1.63;;;;;;;18.20;62.47;97073.59;10563404;28;20024;-30
2022/10/08 07:37:15;;;;;;;2.83;1.50;;;;;;;18.21;62.16;97075.28;10557069;28;20572;-30
2022/10/08 07:42:15;;;;;;;9.37;3.47;;;;;;;18.32;65.36;97078.78;10562401;28;20408;-30
2022/10/08 07:47:16;;;;;;;7.35;4.07;;;;;;;18.36;65.62;97090.63;10560818;28;20040;-32
2022/10/08 07:52:16;;;;;;;6.80;2.83;;;;;;;18.34;64.25;97092.31;10551626;28;20028;-30
2022/10/08 07:57:16;;;;;;;3.53;1.90;;;;;;;18.25;62.37;97084.63;10569250;28;20047;-30
2022/10/08 08:02:17;;;;;;;2.93;2.40;;;;;;;18.25;61.98;97089.69;10560066;28;20049;-31
2022/10/08 08:07:17;;;;;;;4.43;2.17;;;;;;;18.15;62.52;97086.25;10555977;28;20039;-30
2022/10/08 08:12:18;;;;;;;6.33;2.37;;;;;;;18.20;62.50;97091.34;10560239;28;20313;-31
2022/10/08 08:17:18;;;;;;;15.32;3.60;;;;;;;18.27;63.76;97095.63;10555481;28;20043;-31
2022/10/08 08:22:18;;;;;;;12.33;2.93;;;;;;;18.21;62.95;97086.28;10553431;28;20028;-30
2022/10/08 08:27:19;;;;;;;17.33;5.03;;;;;;;18.28;65.83;97092.25;10555544;28;20089;-31
2022/10/08 08:32:20;;;;;;;15.73;4.63;;;;;;;18.38;66.36;97110.09;10563853;28;20304;-30
2022/10/08 08:37:20;;;;;;;11.20;4.53;;;;;;;18.37;63.56;97112.59;10568491;28;20031;-30
2022/10/08 08:42:48;;;;;;;8.77;2.97;;;;;;;18.30;64.62;97116.78;10568588;28;20554;-33
2022/10/08 08:47:59;;;;;;;5.15;2.05;;;;;;;18.29;62.15;97129.41;10563810;28;20032;-30
2022/10/08 08:53:01;;;;;;;3.88;1.88;;;;;;;18.27;62.29;97126.03;10555835;28;20036;-29
2022/10/08 08:58:22;;;;;;;6.68;2.03;;;;;;;18.27;62.09;97128.56;10565174;28;20039;-30
2022/10/08 09:03:33;;;;;;;4.15;2.30;;;;;;;18.26;62.24;97139.53;10563724;28;20401;-32
2022/10/08 09:08:39;;;;;;;5.60;2.10;;;;;;;18.27;62.12;97143.78;10563057;28;20508;-31
2022/10/08 09:13:56;;;;;;;11.70;2.53;;;;;;;18.27;63.42;97139.56;10570440;28;20027;-30
2022/10/08 09:18:56;;;;;;;;;;;;;;;18.38;66.70;97139.66;10552396;28;20696;-31
2022/10/08 09:23:57;;;;;;;8.27;2.80;;;;;;;18.35;63.28;97137.09;10561543;28;19920;-30
2022/10/08 09:28:58;;;;;;;5.65;2.05;;;;;;;18.29;62.24;97139.56;10564028;28;20038;-30
2022/10/08 09:34:14;;;;;;;3.70;2.08;;;;;;;18.28;62.12;97150.53;10562909;28;20032;-31
2022/10/08 09:39:21;;;;;;;4.93;2.17;;;;;;;18.25;62.10;97145.44;10557683;28;20616;-31
2022/10/08 09:44:22;;;;;;;4.88;1.88;;;;;;;18.28;62.22;97155.59;10563353;28;20042;-31
2022/10/08 09:49:27;;;;;;;3.65;1.90;;;;;;;18.28;62.41;97163.19;10563924;28;20036;-30
2022/10/08 09:54:33;;;;;;;4.10;3.67;;;;;;;18.21;62.27;97153.84;10559102;28;20121;-30
2022/10/08 09:59:50;;;;;;;12.03;3.17;;;;;;;18.23;65.59;97165.69;10564217;28;20043;-30
2022/10/08 10:04:53;;;;;;;10.63;3.60;;;;;;;18.34;66.40;97153.16;10545469;28;20305;-30
2022/10/08 10:09:56;;;;;;;8.88;3.55;;;;;;;18.41;66.29;97154.91;10561289;28;20039;-29
2022/10/08 10:15:04;;;;;;;7.35;3.17;;;;;;;18.35;62.83;97159.91;10558897;28;20177;-31
2022/10/08 10:20:31;;;;;;;7.50;3.15;;;;;;;18.31;62.35;97160.72;10560629;28;20043;-32
2022/10/08 10:25:59;;;;;;;7.55;2.55;;;;;;;18.28;62.33;97153.94;10558738;28;20085;-30
2022/10/08 10:31:07;;;;;;;5.65;3.33;;;;;;;18.28;62.38;97153.06;10557023;28;20024;-33
2022/10/08 10:36:12;;;;;;;4.93;2.53;;;;;;;18.28;62.38;97155.59;10563732;28;20033;-30
2022/10/08 10:41:48;;;;;;;8.07;2.33;;;;;;;18.27;62.26;97148.84;10561576;28;20035;-30
2022/10/08 10:46:54;;;;;;;6.70;2.75;;;;;;;18.29;62.63;97159.84;10538097;28;20066;-30
2022/10/08 10:52:13;;;;;;;13.97;4.17;;;;;;;18.37;67.05;97169.25;10555027;27;20075;-30
2022/10/08 10:57:32;;;;;;;5.90;3.28;;;;;;;18.45;66.98;97167.63;10561494;28;20111;-30
2022/10/08 11:02:46;;;;;;;5.15;2.97;;;;;;;18.40;63.23;97174.31;10566158;28;20059;-30
2022/10/08 11:08:12;;;;;;;5.15;2.17;;;;;;;18.28;62.58;97158.13;10561505;28;20038;-29
2022/10/08 11:13:50;;;;;;;7.03;2.78;;;;;;;18.33;62.53;97176.81;10559321;28;20032;-30
2022/10/08 11:18:59;;;;;;;4.43;2.17;;;;;;;18.28;62.53;97178.41;10547791;28;20047;-30
2022/10/08 11:24:18;;;;;;;6.90;2.67;;;;;;;18.30;65.14;97171.69;10555741;28;20036;-31
2022/10/08 11:29:51;;;;;;;10.40;4.15;;;;;;;18.36;63.61;97176.81;10560669;28;20043;-31
2022/10/08 11:35:02;;;;;;;6.00;2.95;;;;;;;18.32;62.83;97180.19;10557388;28;20048;-30
2022/10/08 11:40:18;;;;;;;16.80;5.85;;;;;;;18.37;67.60;97175.97;10558694;28;20031;-29
2022/10/08 11:45:21;;;;;;;10.02;4.10;;;;;;;18.46;66.12;97173.50;10556760;28;20493;-30
2022/10/08 11:50:33;;;;;;;18.02;5.72;;;;;;;18.50;66.66;97170.19;10556104;28;20513;-29
2022/10/08 11:55:35;;;;;;;7.63;3.60;;;;;;;18.40;63.52;97171.78;10561841;28;20124;-29
2022/10/08 12:00:44;;;;;;;8.60;3.70;;;;;;;18.38;63.57;97175.13;10558194;28;20031;-31
2022/10/08 12:05:49;;;;;;;7.25;2.72;;;;;;;18.35;62.85;97165.00;10553575;28;20039;-30
2022/10/08 12:10:50;;;;;;;9.10;3.70;;;;;;;18.33;62.85;97171.75;10567710;28;20047;-30
2022/10/08 12:15:52;;;;;;;11.63;3.80;;;;;;;18.34;64.40;97160.75;10563053;28;20404;-30
2022/10/08 12:21:20;;;;;;;11.77;3.63;;;;;;;18.33;64.84;97161.59;10551851;28;20310;-29
2022/10/08 12:26:20;;;;;;;6.93;2.88;;;;;;;18.35;62.83;97152.31;10557914;28;20040;-31
2022/10/08 12:31:38;;;;;;;13.20;2.95;;;;;;;18.35;63.66;97155.69;10556300;28;20021;-30
2022/10/08 12:36:56;;;;;;;25.95;5.25;;;;;;;18.47;67.67;97160.00;10555686;28;20043;-32
2022/10/08 12:42:14;;;;;;;24.27;6.18;;;;;;;18.52;67.02;97158.34;10559859;28;20055;-29
2022/10/08 12:47:14;;;;;;;11.52;3.90;;;;;;;18.43;63.79;97160.81;10561582;28;20028;-30
2022/10/08 12:52:17;;;;;;;7.77;2.80;;;;;;;18.38;62.93;97165.88;10562518;28;20114;-30
2022/10/08 12:57:25;;;;;;;14.77;4.30;;;;;;;18.37;63.05;97159.09;10563705;28;20028;-31
2022/10/08 13:02:37;;;;;;;10.40;2.92;;;;;;;18.36;63.08;97159.06;10569260;28;20070;-30
2022/10/08 13:07:37;;;;;;;8.00;3.65;;;;;;;18.37;63.32;97173.44;10558891;28;20113;-29
2022/10/08 13:12:39;;;;;;;7.40;3.10;;;;;;;18.36;62.87;97167.53;10557061;28;20024;-29
2022/10/08 13:17:39;;;;;;;11.48;4.88;;;;;;;18.35;62.76;97172.59;10560445;27;20036;-30
2022/10/08 13:22:40;;;;;;;18.67;6.70;;;;;;;18.37;62.75;97179.38;10547970;28;20039;-30
2022/10/08 13:27:40;;;;;;;23.75;7.78;;;;;;;18.46;66.96;97173.50;10563677;28;20286;-31
2022/10/08 13:32:40;;;;;;;21.73;6.37;;;;;;;18.50;67.54;97181.16;10567346;28;20492;-29
2022/10/08 13:37:41;;;;;;;15.10;4.77;;;;;;;18.47;63.98;97180.28;10571177;28;20050;-29
2022/10/08 13:42:47;;;;;;;17.90;4.63;;;;;;;18.37;64.38;97192.06;10565770;28;20869;-31
2022/10/08 13:47:48;;;;;;;12.70;4.13;;;;;;;18.38;63.00;97180.22;10560250;28;20066;-30
2022/10/08 13:52:54;;;;;;;20.20;4.40;;;;;;;18.40;63.85;97183.63;10556224;28;20034;-30
2022/10/08 13:57:58;;;;;;;12.10;3.58;;;;;;;18.37;62.73;97178.50;10560725;28;20028;-31
2022/10/08 14:02:59;;;;;;;10.82;3.42;;;;;;;18.34;62.87;97178.50;10565996;28;20086;-31
2022/10/08 14:08:03;;;;;;;7.33;3.43;;;;;;;18.35;62.72;97180.19;10556431;28;20070;-29
2022/10/08 14:13:03;;;;;;;11.80;3.78;;;;;;;18.34;63.70;97173.44;10552995;28;20778;-31
2022/10/08 14:18:04;;;;;;;21.00;5.40;;;;;;;18.45;66.93;97172.69;10557495;28;20066;-30
2022/10/08 14:23:04;;;;;;;14.82;5.35;;;;;;;18.51;66.40;97176.94;10562702;28;20042;-30
2022/10/08 14:28:05;;;;;;;14.87;4.23;;;;;;;18.38;64.17;97175.13;10559142;28;20032;-30
2022/10/08 14:33:05;;;;;;;10.03;3.20;;;;;;;18.37;62.81;97174.31;10556650;27;20034;-29
2022/10/08 14:38:07;;;;;;;8.07;3.40;;;;;;;18.34;62.77;97168.38;10553826;28;20292;-29
2022/10/08 14:43:07;;;;;;;9.70;3.88;;;;;;;18.33;62.42;97169.22;10564270;28;20285;-30
2022/10/08 14:48:09;;;;;;;7.63;4.70;;;;;;;18.34;62.54;97170.91;10557609;28;20024;-30
2022/10/08 14:53:10;;;;;;;16.20;3.60;;;;;;;18.36;63.40;97161.63;10554598;28;20316;-30
2022/10/08 14:58:10;;;;;;;12.18;4.13;;;;;;;18.35;62.23;97159.91;10562794;28;20080;-29
2022/10/08 15:03:10;;;;;;;15.83;3.67;;;;;;;18.34;59.00;97161.59;10551843;28;20692;-30
2022/10/08 15:08:11;;;;;;;10.95;3.08;;;;;;;18.43;58.73;97153.22;10559152;28;20053;-30
2022/10/08 15:13:11;;;;;;;12.73;3.07;;;;;;;18.43;60.32;97159.13;10557955;28;20032;-30
2022/10/08 15:18:12;;;;;;;11.57;3.53;;;;;;;18.40;61.31;97158.28;10548081;28;20289;-29
2022/10/08 15:23:12;;;;;;;9.00;3.17;;;;;;;18.38;62.15;97154.84;10558128;28;20024;-29
2022/10/08 15:28:12;;;;;;;13.83;2.93;;;;;;;18.41;59.09;97149.84;10555987;28;20028;-30
2022/10/08 15:33:13;;;;;;;8.33;4.03;;;;;;;18.38;61.67;97155.72;10561063;28;20282;-30
2022/10/08 15:38:13;;;;;;;9.57;2.60;;;;;;;18.32;62.33;97150.59;10551187;28;20038;-30
2022/10/08 15:43:14;;;;;;;5.28;2.35;;;;;;;18.34;62.03;97153.97;10543551;28;20044;-30
2022/10/08 15:48:15;;;;;;;10.40;2.80;;;;;;;18.34;62.27;97160.75;10560025;28;20405;-30
2022/10/08 15:53:15;;;;;;;5.50;3.03;;;;;;;18.44;63.86;97170.13;10560296;28;20031;-29
2022/10/08 15:58:16;;;;;;;11.50;3.93;;;;;;;18.50;62.80;97172.72;10556839;28;20028;-30
2022/10/08 16:03:16;;;;;;;17.13;3.20;;;;;;;18.50;62.97;97176.06;10555274;28;20032;-30
2022/10/08 16:08:16;;;;;;;8.00;2.80;;;;;;;18.48;62.45;97181.97;10553782;28;20516;-29
2022/10/08 16:13:17;;;;;;;13.47;3.10;;;;;;;18.45;62.31;97187.03;10559156;28;20463;-30
2022/10/08 16:18:17;;;;;;;7.27;2.70;;;;;;;18.41;62.27;97195.47;10567092;28;20036;-30
2022/10/08 16:23:18;;;;;;;18.90;3.22;;;;;;;18.34;62.95;97189.47;10565064;28;20031;-29
2022/10/08 16:28:18;;;;;;;16.77;3.13;;;;;;;18.38;63.85;97197.97;10561340;28;20035;-29
2022/10/08 16:33:18;;;;;;;11.73;4.53;;;;;;;18.51;65.59;97197.22;10567788;28;20285;-30
2022/10/08 16:38:19;;;;;;;24.73;4.50;;;;;;;18.50;65.34;97200.59;10566838;28;20124;-30
2022/10/08 16:43:20;;;;;;;10.25;2.70;;;;;;;18.46;63.00;97203.94;10567522;28;20678;-30
2022/10/08 16:48:20;;;;;;;4.13;2.30;;;;;;;18.35;62.49;97208.91;10565173;28;20031;-31
2022/10/08 16:53:20;;;;;;;7.83;2.87;;;;;;;18.38;62.57;97225.84;10564892;28;20028;-29
2022/10/08 16:58:21;;;;;;;8.80;2.60;;;;;;;18.36;62.38;97232.59;10561182;28;20119;-31
2022/10/08 17:03:21;;;;;;;14.43;2.93;;;;;;;18.32;63.62;97241.03;10569228;28;20043;-30
2022/10/08 17:08:22;;;;;;;21.27;4.45;;;;;;;18.52;66.05;97244.56;10566035;28;20308;-29
2022/10/08 17:13:22;;;;;;;18.93;5.63;;;;;;;18.57;65.62;97253.06;10562399;28;20055;-29
2022/10/08 17:18:25;;;;;;;16.83;4.13;;;;;;;18.52;65.93;97255.56;10561350;28;20282;-29
2022/10/08 17:23:32;;;;;;;16.63;3.45;;;;;;;18.45;63.40;97260.56;10562469;28;20715;-29
2022/10/08 17:28:36;;;;;;;5.65;2.28;;;;;;;18.40;62.79;97269.81;10562842;28;20496;-29
2022/10/08 17:33:37;;;;;;;8.57;2.40;;;;;;;18.28;62.85;97272.19;10559656;28;20036;-31
2022/10/08 17:38:39;;;;;;;13.02;2.80;;;;;;;18.35;62.76;97281.59;10554522;27;20116;-29
2022/10/08 17:43:40;;;;;;;10.07;3.55;;;;;;;18.35;62.65;97281.59;10533355;28;20172;-30
2022/10/08 17:48:41;;;;;;;22.25;5.30;;;;;;;18.53;67.49;97286.81;10543332;28;20378;-30
2022/10/08 17:53:42;;;;;;;13.18;4.32;;;;;;;18.54;65.16;97291.94;10563844;28;20020;-30
2022/10/08 17:58:43;;;;;;;16.90;3.22;;;;;;;18.44;63.53;97291.81;10556244;28;20114;-29
2022/10/08 18:03:49;;;;;;;6.67;2.67;;;;;;;18.38;63.45;97291.75;10566484;28;20028;-29
2022/10/08 18:08:56;;;;;;;4.93;2.40;;;;;;;18.40;62.96;97290.09;10563264;28;20500;-30
2022/10/08 18:13:57;;;;;;;3.30;2.15;;;;;;;18.34;62.29;97279.91;10557464;28;20059;-29
2022/10/08 18:18:58;;;;;;;6.82;2.08;;;;;;;18.40;62.57;97298.53;10556203;28;20031;-30
2022/10/08 18:23:58;;;;;;;6.93;2.53;;;;;;;18.44;62.35;97307.03;10559223;28;20445;-29
2022/10/08 18:29:00;;;;;;;13.87;3.43;;;;;;;18.52;65.41;97318.09;10554411;28;20062;-29
2022/10/08 18:34:04;;;;;;;13.32;3.58;;;;;;;18.57;66.62;97326.63;10556458;28;20019;-31
2022/10/08 18:39:11;;;;;;;5.20;2.20;;;;;;;18.51;62.04;97334.16;10553757;28;20031;-30
2022/10/08 18:44:15;;;;;;;5.05;2.17;;;;;;;18.45;62.03;97340.00;10561025;28;20046;-30
2022/10/08 18:49:18;;;;;;;9.18;2.20;;;;;;;18.45;61.90;97340.00;10554156;28;20550;-29
2022/10/08 18:54:18;;;;;;;10.90;2.38;;;;;;;18.43;61.82;97348.44;10557600;28;20560;-30
2022/10/08 18:59:19;;;;;;;7.57;2.77;;;;;;;18.34;61.64;97341.56;10552913;28;20039;-29
2022/10/08 19:04:20;;;;;;;6.57;2.38;;;;;;;18.35;61.54;97344.97;10551952;28;20039;-29
2022/10/08 19:09:21;;;;;;;6.05;2.10;;;;;;;18.33;61.59;97356.78;10555615;28;20127;-30
2022/10/08 19:14:22;;;;;;;3.63;2.17;;;;;;;18.43;61.17;97361.13;10555361;28;20032;-30
2022/10/08 19:19:26;;;;;;;9.57;3.15;;;;;;;18.56;60.68;97370.53;10552975;28;20413;-30
2022/10/08 19:24:26;;;;;;;10.00;2.88;;;;;;;18.45;60.50;97372.13;10554482;28;20530;-30
2022/10/08 19:29:30;;;;;;;5.32;1.88;;;;;;;18.31;60.82;97366.91;10558500;28;20051;-30
2022/10/08 19:34:32;;;;;;;4.55;2.38;;;;;;;18.25;60.24;97371.88;10554372;28;20058;-29
2022/10/08 19:39:32;;;;;;;5.07;2.25;;;;;;;18.23;60.76;97372.66;10553609;28;20031;-29
2022/10/08 19:44:33;;;;;;;7.57;2.50;;;;;;;18.19;60.53;97388.69;10560298;28;20031;-30
2022/10/08 19:49:33;;;;;;;5.80;2.67;;;;;;;18.18;60.83;97385.28;10552589;28;20050;-30
2022/10/08 19:54:34;;;;;;;6.50;2.00;;;;;;;18.21;60.60;97402.22;10558793;28;20032;-30
2022/10/08 19:59:34;;;;;;;6.40;1.93;;;;;;;18.35;60.13;97403.28;10547627;28;20028;-29
2022/10/08 20:04:34;;;;;;;10.43;2.73;;;;;;;18.44;59.52;97403.38;10545276;28;20106;-29
2022/10/08 20:09:35;;;;;;;7.03;3.00;;;;;;;18.36;59.90;97384.69;10556837;28;20109;-30
2022/10/08 20:14:35;;;;;;;5.20;2.17;;;;;;;18.39;60.67;97384.72;10559280;28;20031;-30
2022/10/08 20:19:35;;;;;;;9.40;2.10;;;;;;;18.38;61.11;97393.16;10552358;28;20639;-30
2022/10/08 20:24:36;;;;;;;4.45;2.17;;;;;;;18.37;61.22;97391.47;10553838;28;20061;-30
2022/10/08 20:29:36;;;;;;;7.40;2.10;;;;;;;18.36;61.25;97404.97;10566538;28;20089;-29
2022/10/08 20:34:36;;;;;;;10.77;2.40;;;;;;;18.37;61.68;97399.06;10565552;28;20093;-30
2022/10/08 20:39:37;;;;;;;4.17;3.13;;;;;;;18.35;61.93;97393.13;10553144;28;20290;-30
2022/10/08 20:44:37;;;;;;;5.40;2.10;;;;;;;18.35;61.87;97405.81;10550405;27;20032;-29
2022/10/08 20:49:38;;;;;;;6.53;2.23;;;;;;;18.47;61.55;97393.25;10559309;28;20028;-31
2022/10/08 20:54:38;;;;;;;5.90;2.23;;;;;;;18.46;61.13;97396.63;10570268;28;20029;-30
2022/10/08 20:59:38;;;;;;;4.47;1.73;;;;;;;18.39;61.14;97400.78;10565921;28;20036;-30
2022/10/08 21:04:39;;;;;;;5.67;2.13;;;;;;;18.40;60.84;97396.59;10562979;28;20131;-31
2022/10/08 21:09:39;;;;;;;3.00;2.08;;;;;;;18.35;60.82;97393.13;10551153;28;20036;-29
2022/10/08 21:14:40;;;;;;;3.57;1.93;;;;;;;18.35;60.57;97393.13;10565081;28;20403;-30
2022/10/08 21:19:41;;;;;;;5.33;2.03;;;;;;;18.33;60.55;97399.88;10563757;28;20546;-30
2022/10/08 21:24:41;;;;;;;4.30;1.73;;;;;;;18.30;60.62;97397.28;10564231;28;20036;-30
2022/10/08 21:29:42;;;;;;;6.93;1.80;;;;;;;18.27;60.53;97399.78;10560278;28;20027;-30
2022/10/08 21:34:42;;;;;;;3.70;1.50;;;;;;;18.22;60.57;97389.59;10562234;28;20035;-30
2022/10/08 21:39:42;;;;;;;3.47;1.90;;;;;;;18.40;62.89;97386.44;10567141;28;20297;-30
2022/10/08 21:44:43;;;;;;;4.63;2.25;;;;;;;18.46;62.53;97389.03;10554105;28;20040;-30
2022/10/08 21:49:43;;;;;;;3.40;1.83;;;;;;;18.36;60.47;97384.69;10559617;28;20035;-30
2022/10/08 21:54:44;;;;;;;2.83;1.50;;;;;;;18.34;60.07;97396.50;10565087;28;20039;-29
2022/10/08 21:59:44;;;;;;;3.40;1.40;;;;;;;18.32;60.04;97385.50;10560507;28;20397;-29
2022/10/08 22:04:44;;;;;;;3.00;1.67;;;;;;;18.24;59.88;97382.84;10559185;28;20107;-29
2022/10/08 22:09:45;;;;;;;2.03;1.50;;;;;;;18.24;60.10;97374.41;10563159;28;20166;-30
2022/10/08 22:14:45;;;;;;;5.72;1.70;;;;;;;18.22;60.35;97373.50;10567193;28;20023;-29
2022/10/08 22:19:45;;;;;;;4.13;1.70;;;;;;;18.21;60.18;97366.75;10559889;28;20515;-29
2022/10/08 22:24:46;;;;;;;2.90;1.70;;;;;;;18.22;60.19;97370.97;10561786;28;20484;-29
2022/10/08 22:29:46;;;;;;;3.43;1.53;;;;;;;18.32;60.70;97370.31;10560392;28;20289;-30
2022/10/08 22:34:46;;;;;;;2.40;1.63;;;;;;;18.41;62.84;97362.78;10561385;28;20073;-29
2022/10/08 22:39:47;;;;;;;3.43;1.63;;;;;;;18.32;60.03;97363.53;10558949;28;20031;-30
2022/10/08 22:44:47;;;;;;;4.00;1.63;;;;;;;18.30;59.95;97349.13;10557586;28;20027;-29
2022/10/08 22:49:48;;;;;;;2.38;1.40;;;;;;;18.27;59.79;97355.00;10560726;28;20032;-29
2022/10/08 22:54:48;;;;;;;2.63;1.40;;;;;;;18.24;59.88;97359.19;10566248;28;20031;-30
2022/10/08 22:59:48;;;;;;;3.10;1.40;;;;;;;18.16;59.64;97341.34;10553694;28;20117;-30
2022/10/08 23:04:49;;;;;;;2.27;1.13;;;;;;;18.20;59.90;97342.22;10551737;28;20497;-29
2022/10/08 23:09:49;;;;;;;2.53;1.50;;;;;;;18.16;59.88;97336.28;10562542;28;20378;-29
2022/10/08 23:14:50;;;;;;;2.80;1.20;;;;;;;18.19;59.89;97338.00;10563779;28;20035;-30
2022/10/08 23:19:50;;;;;;;1.67;1.05;;;;;;;18.19;59.98;97336.34;10563277;28;20300;-30
2022/10/08 23:24:50;;;;;;;3.17;1.30;;;;;;;18.33;62.21;97339.03;10558993;28;20035;-30
2022/10/08 23:29:51;;;;;;;1.23;1.00;;;;;;;18.34;59.85;97331.44;10556223;28;20027;-30